sensor_id;sensor_type;location;lat;lon;timestamp;pressure;altitude;pressure_sealevel;temperature;humidity
59513;BME280;45330;51.634;5.562;2023-03-18T00:01:15;100716.72;;;11.34;100.00
59513;BME280;45330;51.634;5.562;2023-03-18T00:03:41;100702.88;;;11.29;100.00
59513;BME280;45330;51.634;5.562;2023-03-18T00:06:18;100702.06;;;11.22;100.00
59513;BME280;45330;51.634;5.562;2023-03-18T00:08:45;100688.16;;;11.25;100.00
59513;BME280;45330;51.634;5.562;2023-03-18T00:11:13;100695.88;;;11.32;100.00
59513;BME280;45330;51.634;5.562;2023-03-18T00:13:40;100689.78;;;11.35;100.00
59513;BME280;45330;51.634;5.562;2023-03-18T00:16:07;100676.84;;;11.26;100.00
59513;BME280;45330;51.634;5.562;2023-03-18T00:18:35;100694.13;;;11.33;100.00
59513;BME280;45330;51.634;5.562;2023-03-18T00:21:01;100680.34;;;11.23;100.00
59513;BME280;45330;51.634;5.562;2023-03-18T00:23:28;100696.75;;;11.31;100.00
59513;BME280;45330;51.634;5.562;2023-03-18T00:25:55;100682.16;;;11.18;100.00
59513;BME280;45330;51.634;5.562;2023-03-18T00:28:22;100695.94;;;11.26;100.00
59513;BME280;45330;51.634;5.562;2023-03-18T00:30:48;100687.38;;;11.15;100.00
59513;BME280;45330;51.634;5.562;2023-03-18T00:33:14;100703.78;;;11.25;100.00
59513;BME280;45330;51.634;5.562;2023-03-18T00:35:41;100693.44;;;11.19;100.00
59513;BME280;45330;51.634;5.562;2023-03-18T00:38:07;100702.06;;;11.22;100.00
59513;BME280;45330;51.634;5.562;2023-03-18T00:40:35;100709.88;;;11.22;100.00
59513;BME280;45330;51.634;5.562;2023-03-18T00:43:21;100704.78;;;11.13;100.00
59513;BME280;45330;51.634;5.562;2023-03-18T00:45:48;100706.53;;;11.11;100.00
59513;BME280;45330;51.634;5.562;2023-03-18T00:48:15;100707.41;;;11.11;100.00
59513;BME280;45330;51.634;5.562;2023-03-18T00:50:41;100713.41;;;11.16;100.00
59513;BME280;45330;51.634;5.562;2023-03-18T00:53:07;100709.91;;;11.19;100.00
59513;BME280;45330;51.634;5.562;2023-03-18T00:55:32;100712.50;;;11.21;100.00
59513;BME280;45330;51.634;5.562;2023-03-18T00:57:59;100719.44;;;11.22;100.00
59513;BME280;45330;51.634;5.562;2023-03-18T01:00:25;100710.84;;;11.13;100.00
59513;BME280;45330;51.634;5.562;2023-03-18T01:02:51;100730.72;;;11.22;100.00
59513;BME280;45330;51.634;5.562;2023-03-18T01:05:16;100714.34;;;11.14;100.00
59513;BME280;45330;51.634;5.562;2023-03-18T01:07:42;100715.22;;;11.13;100.00
59513;BME280;45330;51.634;5.562;2023-03-18T01:10:11;100723.81;;;11.21;100.00
59513;BME280;45330;51.634;5.562;2023-03-18T01:12:37;100729.03;;;11.20;100.00
59513;BME280;45330;51.634;5.562;2023-03-18T01:15:03;100719.44;;;11.22;100.00
59513;BME280;45330;51.634;5.562;2023-03-18T01:17:30;100705.72;;;11.07;100.00
59513;BME280;45330;51.634;5.562;2023-03-18T01:19:56;100730.78;;;11.18;100.00
59513;BME280;45330;51.634;5.562;2023-03-18T01:22:21;100710.06;;;11.05;100.00
59513;BME280;45330;51.634;5.562;2023-03-18T01:24:47;100714.38;;;11.08;100.00
59513;BME280;45330;51.634;5.562;2023-03-18T01:27:13;100709.22;;;11.03;100.00
59513;BME280;45330;51.634;5.562;2023-03-18T01:29:39;100730.84;;;11.11;100.00
59513;BME280;45330;51.634;5.562;2023-03-18T01:32:05;100725.66;;;11.10;100.00
59513;BME280;45330;51.634;5.562;2023-03-18T01:34:30;100701.47;;;11.00;100.00
59513;BME280;45330;51.634;5.562;2023-03-18T01:36:55;100716.97;;;11.08;100.00
59513;BME280;45330;51.634;5.562;2023-03-18T01:39:22;100714.44;;;11.02;100.00
59513;BME280;45330;51.634;5.562;2023-03-18T01:41:48;100716.22;;;10.98;100.00
59513;BME280;45330;51.634;5.562;2023-03-18T01:44:18;100715.38;;;10.96;100.00
59513;BME280;45330;51.634;5.562;2023-03-18T01:46:48;100726.59;;;10.99;100.00
59513;BME280;45330;51.634;5.562;2023-03-18T01:49:16;100725.78;;;10.96;100.00
59513;BME280;45330;51.634;5.562;2023-03-18T01:51:48;100714.59;;;10.88;100.00
59513;BME280;45330;51.634;5.562;2023-03-18T01:54:15;100699.97;;;10.76;100.00
59513;BME280;45330;51.634;5.562;2023-03-18T01:56:43;100711.25;;;10.73;100.00
59513;BME280;45330;51.634;5.562;2023-03-18T01:59:10;100712.22;;;10.60;100.00
59513;BME280;45330;51.634;5.562;2023-03-18T02:01:46;100727.06;;;10.49;100.00
59513;BME280;45330;51.634;5.562;2023-03-18T02:04:13;100710.69;;;10.36;100.00
59513;BME280;45330;51.634;5.562;2023-03-18T02:06:38;100700.34;;;10.22;100.00
59513;BME280;45330;51.634;5.562;2023-03-18T02:09:05;100724.56;;;10.28;100.00
59513;BME280;45330;51.634;5.562;2023-03-18T02:11:33;100722.00;;;10.27;100.00
59513;BME280;45330;51.634;5.562;2023-03-18T02:14:00;100723.69;;;10.28;100.00
59513;BME280;45330;51.634;5.562;2023-03-18T02:16:47;100727.19;;;10.25;100.00
59513;BME280;45330;51.634;5.562;2023-03-18T02:19:45;100721.97;;;10.30;100.00
59513;BME280;45330;51.634;5.562;2023-03-18T02:25:06;100715.97;;;10.17;100.00
59513;BME280;45330;51.634;5.562;2023-03-18T02:27:39;100725.44;;;10.26;100.00
59513;BME280;45330;51.634;5.562;2023-03-18T02:30:10;100711.63;;;10.19;100.00
59513;BME280;45330;51.634;5.562;2023-03-18T02:32:39;100708.22;;;10.09;100.00
59513;BME280;45330;51.634;5.562;2023-03-18T02:35:08;100709.97;;;10.07;100.00
59513;BME280;45330;51.634;5.562;2023-03-18T02:37:34;100736.75;;;10.22;100.00
59513;BME280;45330;51.634;5.562;2023-03-18T02:40:22;100745.41;;;10.19;100.00
59513;BME280;45330;51.634;5.562;2023-03-18T02:42:48;100721.22;;;10.08;100.00
59513;BME280;45330;51.634;5.562;2023-03-18T02:48:22;100745.47;;;10.15;100.00
59513;BME280;45330;51.634;5.562;2023-03-18T02:50:50;100735.13;;;10.04;100.00
59513;BME280;45330;51.634;5.562;2023-03-18T02:53:16;100754.16;;;10.10;100.00
59513;BME280;45330;51.634;5.562;2023-03-18T02:55:41;100741.22;;;9.98;100.00
59513;BME280;45330;51.634;5.562;2023-03-18T02:58:07;100761.09;;;10.08;100.00
59513;BME280;45330;51.634;5.562;2023-03-18T03:00:34;100756.81;;;10.03;100.00
59513;BME280;45330;51.634;5.562;2023-03-18T03:02:59;100755.91;;;10.04;100.00
59513;BME280;45330;51.634;5.562;2023-03-18T03:05:26;100737.78;;;9.90;100.00
59513;BME280;45330;51.634;5.562;2023-03-18T03:07:51;100762.88;;;10.00;100.00
59513;BME280;45330;51.634;5.562;2023-03-18T03:10:17;100766.34;;;9.99;100.00
59513;BME280;45330;51.634;5.562;2023-03-18T03:12:42;100773.28;;;9.97;100.00
59513;BME280;45330;51.634;5.562;2023-03-18T03:15:10;100763.78;;;9.87;100.00
59513;BME280;45330;51.634;5.562;2023-03-18T03:17:35;100761.19;;;9.87;100.00
59513;BME280;45330;51.634;5.562;2023-03-18T03:20:03;100762.91;;;9.91;100.00
59513;BME280;45330;51.634;5.562;2023-03-18T03:22:31;100783.69;;;9.95;100.00
59513;BME280;45330;51.634;5.562;2023-03-18T03:24:56;100771.59;;;9.87;100.00
59513;BME280;45330;51.634;5.562;2023-03-18T03:27:22;100767.25;;;9.86;100.00
59513;BME280;45330;51.634;5.562;2023-03-18T03:29:48;100791.47;;;9.97;100.00
59513;BME280;45330;51.634;5.562;2023-03-18T03:32:13;100791.47;;;9.97;100.00
59513;BME280;45330;51.634;5.562;2023-03-18T03:34:40;100786.28;;;9.94;100.00
59513;BME280;45330;51.634;5.562;2023-03-18T03:37:06;100792.34;;;9.98;100.00
59513;BME280;45330;51.634;5.562;2023-03-18T03:39:31;100782.84;;;9.92;100.00
59513;BME280;45330;51.634;5.562;2023-03-18T03:41:57;100772.44;;;9.86;100.00
59513;BME280;45330;51.634;5.562;2023-03-18T03:44:22;100781.97;;;9.90;100.00
59513;BME280;45330;51.634;5.562;2023-03-18T03:46:48;100791.50;;;9.92;100.00
59513;BME280;45330;51.634;5.562;2023-03-18T03:49:14;100781.16;;;9.85;100.00
59513;BME280;45330;51.634;5.562;2023-03-18T03:51:39;100773.34;;;9.82;100.00
59513;BME280;45330;51.634;5.562;2023-03-18T03:54:05;100792.38;;;9.93;100.00
59513;BME280;45330;51.634;5.562;2023-03-18T03:56:30;100797.56;;;9.93;100.00
59513;BME280;45330;51.634;5.562;2023-03-18T03:58:56;100778.53;;;9.85;100.00
59513;BME280;45330;51.634;5.562;2023-03-18T04:01:22;100793.25;;;9.92;100.00
59513;BME280;45330;51.634;5.562;2023-03-18T04:03:47;100795.84;;;9.92;100.00
59513;BME280;45330;51.634;5.562;2023-03-18T04:06:13;100794.13;;;9.89;100.00
59513;BME280;45330;51.634;5.562;2023-03-18T04:08:39;100786.34;;;9.83;100.00
59513;BME280;45330;51.634;5.562;2023-03-18T04:11:05;100787.22;;;9.82;100.00
59513;BME280;45330;51.634;5.562;2023-03-18T04:13:31;100801.91;;;9.89;100.00
59513;BME280;45330;51.634;5.562;2023-03-18T04:15:58;100790.66;;;9.84;100.00
59513;BME280;45330;51.634;5.562;2023-03-18T04:18:24;100797.56;;;9.90;100.00
59513;BME280;45330;51.634;5.562;2023-03-18T04:20:50;100800.19;;;9.85;100.00
59513;BME280;45330;51.634;5.562;2023-03-18T04:23:16;100800.19;;;9.87;100.00
59513;BME280;45330;51.634;5.562;2023-03-18T04:25:42;100807.13;;;9.88;100.00
59513;BME280;45330;51.634;5.562;2023-03-18T04:28:07;100800.19;;;9.84;100.00
59513;BME280;45330;51.634;5.562;2023-03-18T04:30:33;100787.25;;;9.77;100.00
59513;BME280;45330;51.634;5.562;2023-03-18T04:32:58;100786.38;;;9.75;100.00
59513;BME280;45330;51.634;5.562;2023-03-18T04:35:26;100789.84;;;9.77;100.00
59513;BME280;45330;51.634;5.562;2023-03-18T04:37:52;100799.34;;;9.80;100.00
59513;BME280;45330;51.634;5.562;2023-03-18T04:40:19;100782.94;;;9.73;100.00
59513;BME280;45330;51.634;5.562;2023-03-18T04:42:45;100804.53;;;9.85;100.00
59513;BME280;45330;51.634;5.562;2023-03-18T04:45:13;100812.31;;;9.82;100.00
59513;BME280;45330;51.634;5.562;2023-03-18T04:47:40;100805.44;;;9.77;100.00
59513;BME280;45330;51.634;5.562;2023-03-18T04:50:06;100813.22;;;9.81;100.00
59513;BME280;45330;51.634;5.562;2023-03-18T04:52:35;100789.00;;;9.71;100.00
59513;BME280;45330;51.634;5.562;2023-03-18T04:55:00;100789.00;;;9.71;100.00
59513;BME280;45330;51.634;5.562;2023-03-18T04:57:25;100816.66;;;9.79;100.00
59513;BME280;45330;51.634;5.562;2023-03-18T04:59:52;100815.81;;;9.79;100.00
59513;BME280;45330;51.634;5.562;2023-03-18T05:02:18;100808.88;;;9.76;100.00
59513;BME280;45330;51.634;5.562;2023-03-18T05:04:44;100825.31;;;9.80;100.00
59513;BME280;45330;51.634;5.562;2023-03-18T05:07:12;100828.81;;;9.79;100.00
59513;BME280;45330;51.634;5.562;2023-03-18T05:09:39;100813.22;;;9.71;100.00
59513;BME280;45330;51.634;5.562;2023-03-18T05:12:06;100812.38;;;9.69;100.00
59513;BME280;45330;51.634;5.562;2023-03-18T05:14:31;100829.66;;;9.79;100.00
59513;BME280;45330;51.634;5.562;2023-03-18T05:16:57;100832.25;;;9.79;100.00
59513;BME280;45330;51.634;5.562;2023-03-18T05:19:22;100837.44;;;9.81;100.00
59513;BME280;45330;51.634;5.562;2023-03-18T05:21:49;100834.00;;;9.79;100.00
59513;BME280;45330;51.634;5.562;2023-03-18T05:24:14;100835.72;;;9.80;100.00
59513;BME280;45330;51.634;5.562;2023-03-18T05:26:40;100838.31;;;9.82;100.00
59513;BME280;45330;51.634;5.562;2023-03-18T05:29:05;100839.19;;;9.82;100.00
59513;BME280;45330;51.634;5.562;2023-03-18T05:31:30;100834.84;;;9.81;100.00
59513;BME280;45330;51.634;5.562;2023-03-18T05:33:56;100837.44;;;9.81;100.00
59513;BME280;45330;51.634;5.562;2023-03-18T05:36:21;100834.88;;;9.78;100.00
59513;BME280;45330;51.634;5.562;2023-03-18T05:38:47;100837.44;;;9.83;100.00
59513;BME280;45330;51.634;5.562;2023-03-18T05:41:13;100821.91;;;9.73;100.00
59513;BME280;45330;51.634;5.562;2023-03-18T05:43:38;100821.88;;;9.70;100.00
59513;BME280;45330;51.634;5.562;2023-03-18T05:46:04;100839.19;;;9.74;100.00
59513;BME280;45330;51.634;5.562;2023-03-18T05:48:29;100815.00;;;9.55;100.00
59513;BME280;45330;51.634;5.562;2023-03-18T05:50:56;100811.56;;;9.46;100.00
59513;BME280;45330;51.634;5.562;2023-03-18T05:53:22;100821.97;;;9.41;100.00
59513;BME280;45330;51.634;5.562;2023-03-18T05:55:48;100830.66;;;9.35;100.00
59513;BME280;45330;51.634;5.562;2023-03-18T05:58:13;100847.06;;;9.47;100.00
59513;BME280;45330;51.634;5.562;2023-03-18T06:00:39;100837.53;;;9.39;100.00
59513;BME280;45330;51.634;5.562;2023-03-18T06:03:05;100857.44;;;9.54;100.00
59513;BME280;45330;51.634;5.562;2023-03-18T06:05:31;100841.88;;;9.50;100.00
59513;BME280;45330;51.634;5.562;2023-03-18T06:07:56;100866.09;;;9.61;100.00
59513;BME280;45330;51.634;5.562;2023-03-18T06:10:23;100860.88;;;9.64;100.00
59513;BME280;45330;51.634;5.562;2023-03-18T06:12:49;100871.25;;;9.69;100.00
59513;BME280;45330;51.634;5.562;2023-03-18T06:15:15;100858.28;;;9.67;100.00
59513;BME280;45330;51.634;5.562;2023-03-18T06:17:41;100867.81;;;9.67;100.00
59513;BME280;45330;51.634;5.562;2023-03-18T06:20:09;100881.66;;;9.76;100.00
59513;BME280;45330;51.634;5.562;2023-03-18T06:22:36;100871.28;;;9.73;100.00
59513;BME280;45330;51.634;5.562;2023-03-18T06:25:02;100860.03;;;9.62;100.00
59513;BME280;45330;51.634;5.562;2023-03-18T06:27:29;100879.06;;;9.66;100.00
59513;BME280;45330;51.634;5.562;2023-03-18T06:29:55;100878.22;;;9.62;100.00
59513;BME280;45330;51.634;5.562;2023-03-18T06:32:21;100871.28;;;9.59;100.00
59513;BME280;45330;51.634;5.562;2023-03-18T06:34:46;100863.50;;;9.55;100.00
59513;BME280;45330;51.634;5.562;2023-03-18T06:37:12;100854.84;;;9.53;100.00
59513;BME280;45330;51.634;5.562;2023-03-18T06:39:37;100878.22;;;9.62;100.00
59513;BME280;45330;51.634;5.562;2023-03-18T06:42:03;100871.28;;;9.55;100.00
59513;BME280;45330;51.634;5.562;2023-03-18T06:44:29;100867.84;;;9.51;100.00
59513;BME280;45330;51.634;5.562;2023-03-18T06:46:54;100857.44;;;9.40;100.00
59513;BME280;45330;51.634;5.562;2023-03-18T06:49:20;100879.94;;;9.49;100.00
59513;BME280;45330;51.634;5.562;2023-03-18T06:51:45;100866.09;;;9.38;100.00
59513;BME280;45330;51.634;5.562;2023-03-18T06:54:12;100883.44;;;9.50;100.00
59513;BME280;45330;51.634;5.562;2023-03-18T06:56:38;100881.69;;;9.50;100.00
59513;BME280;45330;51.634;5.562;2023-03-18T06:59:06;100883.44;;;9.47;100.00
59513;BME280;45330;51.634;5.562;2023-03-18T07:01:34;100896.41;;;9.54;100.00
59513;BME280;45330;51.634;5.562;2023-03-18T07:04:00;100871.31;;;9.41;100.00
59513;BME280;45330;51.634;5.562;2023-03-18T07:06:27;100882.53;;;9.49;100.00
59513;BME280;45330;51.634;5.562;2023-03-18T07:08:54;100906.78;;;9.59;100.00
59513;BME280;45330;51.634;5.562;2023-03-18T07:11:19;100902.47;;;9.61;100.00
59513;BME280;45330;51.634;5.562;2023-03-18T07:13:46;100906.78;;;9.67;100.00
59513;BME280;45330;51.634;5.562;2023-03-18T07:16:12;100896.41;;;9.62;100.00
59513;BME280;45330;51.634;5.562;2023-03-18T07:18:37;100906.78;;;9.73;100.00
59513;BME280;45330;51.634;5.562;2023-03-18T07:21:03;100912.84;;;9.75;100.00
59513;BME280;45330;51.634;5.562;2023-03-18T07:23:29;100907.63;;;9.76;100.00
59513;BME280;45330;51.634;5.562;2023-03-18T07:25:55;100911.06;;;9.82;100.00
59513;BME280;45330;51.634;5.562;2023-03-18T07:28:20;100920.59;;;9.93;100.00
59513;BME280;45330;51.634;5.562;2023-03-18T07:30:46;100892.91;;;9.83;100.00
59513;BME280;45330;51.634;5.562;2023-03-18T07:33:12;100914.50;;;10.05;100.00
59513;BME280;45330;51.634;5.562;2023-03-18T07:35:37;100923.13;;;10.13;100.00
59513;BME280;45330;51.634;5.562;2023-03-18T07:38:06;100911.00;;;10.09;100.00
59513;BME280;45330;51.634;5.562;2023-03-18T07:40:31;100917.91;;;10.17;100.00
59513;BME280;45330;51.634;5.562;2023-03-18T07:42:57;100917.03;;;10.27;100.00
59513;BME280;45330;51.634;5.562;2023-03-18T07:45:22;100921.34;;;10.39;100.00
59513;BME280;45330;51.634;5.562;2023-03-18T07:47:48;100929.13;;;10.48;100.00
59513;BME280;45330;51.634;5.562;2023-03-18T07:50:13;100937.75;;;10.53;100.00
59513;BME280;45330;51.634;5.562;2023-03-18T07:52:39;100938.63;;;10.55;100.00
59513;BME280;45330;51.634;5.562;2023-03-18T07:55:04;100942.94;;;10.62;100.00
59513;BME280;45330;51.634;5.562;2023-03-18T07:57:30;100943.78;;;10.64;100.00
59513;BME280;45330;51.634;5.562;2023-03-18T07:59:55;100944.63;;;10.70;100.00
59513;BME280;45330;51.634;5.562;2023-03-18T08:02:21;100936.84;;;10.67;100.00
59513;BME280;45330;51.634;5.562;2023-03-18T08:04:47;100948.94;;;10.75;100.00
59513;BME280;45330;51.634;5.562;2023-03-18T08:07:13;100951.53;;;10.81;100.00
59513;BME280;45330;51.634;5.562;2023-03-18T08:09:38;100954.09;;;10.85;100.00
59513;BME280;45330;51.634;5.562;2023-03-18T08:12:04;100942.00;;;10.77;100.00
59513;BME280;45330;51.634;5.562;2023-03-18T08:14:30;100957.53;;;10.94;100.00
59513;BME280;45330;51.634;5.562;2023-03-18T08:16:55;100930.69;;;10.85;100.00
59513;BME280;45330;51.634;5.562;2023-03-18T08:19:21;100951.44;;;10.98;100.00
59513;BME280;45330;51.634;5.562;2023-03-18T08:21:46;100939.25;;;10.99;100.00
59513;BME280;45330;51.634;5.562;2023-03-18T08:24:12;100927.97;;;11.00;100.00
59513;BME280;45330;51.634;5.562;2023-03-18T08:26:37;100945.25;;;11.10;100.00
59513;BME280;45330;51.634;5.562;2023-03-18T08:29:03;100942.63;;;11.13;100.00
59513;BME280;45330;51.634;5.562;2023-03-18T08:31:28;100914.03;;;11.07;100.00
59513;BME280;45330;51.634;5.562;2023-03-18T08:33:54;100938.22;;;11.25;100.00
59513;BME280;45330;51.634;5.562;2023-03-18T08:36:21;100924.34;;;11.23;100.00
59513;BME280;45330;51.634;5.562;2023-03-18T08:38:46;100928.66;;;11.27;100.00
59513;BME280;45330;51.634;5.562;2023-03-18T08:41:12;100927.78;;;11.29;100.00
59513;BME280;45330;51.634;5.562;2023-03-18T08:43:37;100941.56;;;11.42;100.00
59513;BME280;45330;51.634;5.562;2023-03-18T08:46:03;100933.78;;;11.39;100.00
59513;BME280;45330;51.634;5.562;2023-03-18T08:48:29;100933.75;;;11.42;100.00
59513;BME280;45330;51.634;5.562;2023-03-18T08:50:55;100955.34;;;11.57;100.00
59513;BME280;45330;51.634;5.562;2023-03-18T08:53:20;100942.25;;;11.61;100.00
59513;BME280;45330;51.634;5.562;2023-03-18T08:55:45;100938.75;;;11.65;100.00
59513;BME280;45330;51.634;5.562;2023-03-18T08:58:11;100958.56;;;11.83;100.00
59513;BME280;45330;51.634;5.562;2023-03-18T09:00:38;100937.72;;;11.83;100.00
59513;BME280;45330;51.634;5.562;2023-03-18T09:03:04;100950.69;;;11.94;100.00
59513;BME280;45330;51.634;5.562;2023-03-18T09:05:31;100948.00;;;12.02;100.00
59513;BME280;45330;51.634;5.562;2023-03-18T09:07:57;100953.16;;;12.08;100.00
59513;BME280;45330;51.634;5.562;2023-03-18T09:10:23;100945.34;;;12.07;100.00
59513;BME280;45330;51.634;5.562;2023-03-18T09:12:49;100955.72;;;12.11;100.00
59513;BME280;45330;51.634;5.562;2023-03-18T09:15:15;100944.53;;;12.00;100.00
59513;BME280;45330;51.634;5.562;2023-03-18T09:17:41;100954.81;;;12.15;100.00
59513;BME280;45330;51.634;5.562;2023-03-18T09:20:09;100955.59;;;12.21;100.00
59513;BME280;45330;51.634;5.562;2023-03-18T09:22:35;100944.34;;;12.18;100.00
59513;BME280;45330;51.634;5.562;2023-03-18T09:25:00;100949.34;;;12.37;100.00
59513;BME280;45330;51.634;5.562;2023-03-18T09:27:26;100940.59;;;12.41;100.00
59513;BME280;45330;51.634;5.562;2023-03-18T09:29:52;100958.63;;;12.61;100.00
59513;BME280;45330;51.634;5.562;2023-03-18T09:32:17;100943.84;;;12.62;100.00
59513;BME280;45330;51.634;5.562;2023-03-18T09:34:43;100951.41;;;12.80;100.00
59513;BME280;45330;51.634;5.562;2023-03-18T09:37:11;100956.44;;;12.94;100.00
59513;BME280;45330;51.634;5.562;2023-03-18T09:39:39;100963.25;;;13.04;100.00
59513;BME280;45330;51.634;5.562;2023-03-18T09:44:54;100947.47;;;13.14;100.00
59513;BME280;45330;51.634;5.562;2023-03-18T09:49:56;100975.56;;;13.59;100.00
59513;BME280;45330;51.634;5.562;2023-03-18T09:53:03;100977.06;;;13.72;100.00
59513;BME280;45330;51.634;5.562;2023-03-18T09:55:49;100943.72;;;13.83;100.00
59513;BME280;45330;51.634;5.562;2023-03-18T09:58:31;100969.28;;;14.16;100.00
59513;BME280;45330;51.634;5.562;2023-03-18T10:01:01;100969.03;;;14.30;100.00
59513;BME280;45330;51.634;5.562;2023-03-18T10:04:02;100955.84;;;14.34;100.00
59513;BME280;45330;51.634;5.562;2023-03-18T10:06:22;100947.63;;;14.53;100.00
59513;BME280;45330;51.634;5.562;2023-03-18T10:11:44;100969.09;;;14.72;100.00
59513;BME280;45330;51.634;5.562;2023-03-18T10:19:35;100964.78;;;15.08;100.00
59513;BME280;45330;51.634;5.562;2023-03-18T10:24:52;100951.69;;;15.08;100.00
59513;BME280;45330;51.634;5.562;2023-03-18T10:32:57;100963.69;;;15.17;100.00
59513;BME280;45330;51.634;5.562;2023-03-18T10:35:29;100973.09;;;15.27;100.00
59513;BME280;45330;51.634;5.562;2023-03-18T10:38:04;100953.09;;;15.23;100.00
59513;BME280;45330;51.634;5.562;2023-03-18T10:40:38;100956.53;;;15.25;100.00
59513;BME280;45330;51.634;5.562;2023-03-18T10:43:14;100964.13;;;15.36;100.00
59513;BME280;45330;51.634;5.562;2023-03-18T10:45:42;100954.50;;;15.37;100.00
59513;BME280;45330;51.634;5.562;2023-03-18T10:53:39;100967.16;;;15.19;100.00
59513;BME280;45330;51.634;5.562;2023-03-18T10:56:09;100961.84;;;15.22;100.00
59513;BME280;45330;51.634;5.562;2023-03-18T10:58:36;100955.03;;;15.15;100.00
59513;BME280;45330;51.634;5.562;2023-03-18T11:01:03;100964.59;;;15.18;100.00
59513;BME280;45330;51.634;5.562;2023-03-18T11:03:34;100944.84;;;15.01;100.00
59513;BME280;45330;51.634;5.562;2023-03-18T11:06:01;100966.19;;;15.23;100.00
59513;BME280;45330;51.634;5.562;2023-03-18T11:10:54;100941.78;;;15.57;100.00
59513;BME280;45330;51.634;5.562;2023-03-18T11:13:19;100944.44;;;15.90;100.00
59513;BME280;45330;51.634;5.562;2023-03-18T11:15:51;100941.16;;;16.15;100.00
59513;BME280;45330;51.634;5.562;2023-03-18T11:18:21;100946.81;;;16.31;100.00
59513;BME280;45330;51.634;5.562;2023-03-18T11:20:54;100957.03;;;16.42;92.95
59513;BME280;45330;51.634;5.562;2023-03-18T11:23:52;100953.50;;;16.43;99.50
59513;BME280;45330;51.634;5.562;2023-03-18T11:26:42;100939.97;;;16.25;95.70
59513;BME280;45330;51.634;5.562;2023-03-18T11:29:16;100945.22;;;16.25;94.68
59513;BME280;45330;51.634;5.562;2023-03-18T11:31:57;100955.53;;;16.33;91.97
59513;BME280;45330;51.634;5.562;2023-03-18T11:34:24;100942.47;;;16.32;91.71
59513;BME280;45330;51.634;5.562;2023-03-18T11:36:58;100942.13;;;16.42;95.90
59513;BME280;45330;51.634;5.562;2023-03-18T11:39:28;100957.81;;;16.45;92.43
59513;BME280;45330;51.634;5.562;2023-03-18T11:41:56;100968.56;;;16.36;90.06
59513;BME280;45330;51.634;5.562;2023-03-18T11:44:27;100972.97;;;16.36;91.73
59513;BME280;45330;51.634;5.562;2023-03-18T11:47:01;100971.50;;;16.25;90.28
59513;BME280;45330;51.634;5.562;2023-03-18T11:49:28;100982.97;;;16.21;90.13
59513;BME280;45330;51.634;5.562;2023-03-18T11:57:44;100977.25;;;16.07;95.82
59513;BME280;45330;51.634;5.562;2023-03-18T12:00:36;100984.94;;;15.80;100.00
59513;BME280;45330;51.634;5.562;2023-03-18T12:08:46;100986.56;;;15.12;100.00
59513;BME280;45330;51.634;5.562;2023-03-18T12:14:30;100972.78;;;15.02;100.00
59513;BME280;45330;51.634;5.562;2023-03-18T12:22:38;100995.06;;;15.22;100.00
59513;BME280;45330;51.634;5.562;2023-03-18T12:25:26;100979.38;;;15.20;100.00
59513;BME280;45330;51.634;5.562;2023-03-18T12:33:57;100987.25;;;15.20;99.52
59513;BME280;45330;51.634;5.562;2023-03-18T12:42:10;100988.41;;;15.44;99.41
59513;BME280;45330;51.634;5.562;2023-03-18T12:47:15;100981.56;;;15.39;100.00
59513;BME280;45330;51.634;5.562;2023-03-18T12:49:51;100986.38;;;15.20;100.00
59513;BME280;45330;51.634;5.562;2023-03-18T12:55:00;100969.56;;;14.91;100.00
59513;BME280;45330;51.634;5.562;2023-03-18T12:57:55;100992.84;;;15.03;100.00
59513;BME280;45330;51.634;5.562;2023-03-18T13:00:31;100972.59;;;15.10;100.00
59513;BME280;45330;51.634;5.562;2023-03-18T13:05:55;100969.44;;;15.35;98.61
59513;BME280;45330;51.634;5.562;2023-03-18T13:08:40;100984.75;;;15.52;97.29
59513;BME280;45330;51.634;5.562;2023-03-18T13:13:53;100955.66;;;15.61;91.32
59513;BME280;45330;51.634;5.562;2023-03-18T13:16:20;100974.13;;;15.92;89.18
59513;BME280;45330;51.634;5.562;2023-03-18T13:18:50;100955.41;;;16.06;89.98
59513;BME280;45330;51.634;5.562;2023-03-18T13:21:21;100971.69;;;16.19;91.97
59513;BME280;45330;51.634;5.562;2023-03-18T13:32:39;100955.25;;;15.76;100.00
59513;BME280;45330;51.634;5.562;2023-03-18T13:35:21;100944.84;;;15.73;100.00
59513;BME280;45330;51.634;5.562;2023-03-18T13:43:44;100954.09;;;16.21;100.00
59513;BME280;45330;51.634;5.562;2023-03-18T13:46:28;100954.75;;;15.98;99.14
59513;BME280;45330;51.634;5.562;2023-03-18T13:48:56;100953.63;;;16.07;97.74
59513;BME280;45330;51.634;5.562;2023-03-18T13:53:49;100949.28;;;16.06;96.60
59513;BME280;45330;51.634;5.562;2023-03-18T13:56:48;100959.09;;;16.31;97.70
59513;BME280;45330;51.634;5.562;2023-03-18T14:07:56;100950.75;;;16.16;94.96
59513;BME280;45330;51.634;5.562;2023-03-18T14:10:22;100956.06;;;16.13;96.99
59513;BME280;45330;51.634;5.562;2023-03-18T14:12:47;100959.50;;;16.17;96.83
59513;BME280;45330;51.634;5.562;2023-03-18T14:15:36;100944.13;;;16.03;99.61
59513;BME280;45330;51.634;5.562;2023-03-18T14:18:24;100959.09;;;15.99;94.71
59513;BME280;45330;51.634;5.562;2023-03-18T14:20:58;100940.13;;;15.89;94.66
59513;BME280;45330;51.634;5.562;2023-03-18T14:25:59;100935.56;;;16.27;89.29
59513;BME280;45330;51.634;5.562;2023-03-18T14:28:26;100934.47;;;16.35;83.68
59513;BME280;45330;51.634;5.562;2023-03-18T14:30:56;100942.56;;;16.27;84.70
59513;BME280;45330;51.634;5.562;2023-03-18T14:36:08;100940.47;;;15.74;88.33
59513;BME280;45330;51.634;5.562;2023-03-18T14:38:48;100927.22;;;15.44;88.51
59513;BME280;45330;51.634;5.562;2023-03-18T14:41:21;100937.38;;;15.23;89.51